Temp: 18.1°C   Baro: 1015.1mb
  Wind: 4.9mph   Dir: WSW (250°)
  Rain: 0.6mm (0.0mm/hr)
  Solar: 169W/m2  Hum: 56%
 
Bath Spa Weather Station Historical Data
Daily Summary for July 31, 2020 Units:  Both    English   Metric
Daily Weekly Monthly Yearly Custom
  High: Low: Average:
Temperature: 88.6 °F /  31.4 °C 61.6 °F /  16.4 °C 71.9 °F /  22.2 °C
Dew Point: 68.3 °F /  20.2 °C 53.8 °F /  12.1 °C 59.6 °F /  15.3 °C
Humidity: 85% 44% 67%
Wind Speed: 11mph /  17.7km/h - 4.6mph /  7.4km/h
Wind Gust: 18mph /  29km/h - -
Wind- - SSW
Pressure: 29.95 in /  1014.1 hPa 29.77 in /  1008 hPa -
Precipitation: 0.00 in /  0 mm    
Historical Graphs
 
 
Tabular Data for July 31, 2020
Time Temperature Dew Point Pressure Wind Wind Speed Wind Gust Humidity Rainfall Rate (Hourly) solar
00:04 66.6 °F /  19.2 °C 54.9 °F /  12.7 °C 29.95in /  1014.1hPa ESE 1.7mph /  2.7km/h 5mph /  8km/h 66% 0.00in /  0mm 0 W/m2
00:09 66.6 °F /  19.2 °C 54.9 °F /  12.7 °C 29.94in /  1013.8hPa SE 1.2mph /  1.9km/h 4mph /  6.4km/h 66% 0.00in /  0mm 0 W/m2
00:14 66.6 °F /  19.2 °C 54.9 °F /  12.7 °C 29.94in /  1013.8hPa SE 0.6mph /  1km/h 4mph /  6.4km/h 66% 0.00in /  0mm 0 W/m2
00:19 66.4 °F /  19.1 °C 54.8 °F /  12.7 °C 29.94in /  1013.8hPa ESE 0.4mph /  0.6km/h 4mph /  6.4km/h 66.4% 0.00in /  0mm 0 W/m2
00:24 66.3 °F /  19.1 °C 55 °F /  12.8 °C 29.94in /  1013.8hPa Calm   4mph /  6.4km/h 67% 0.00in /  0mm 0 W/m2
00:29 65.9 °F /  18.8 °C 55 °F /  12.8 °C 29.94in /  1013.8hPa SE 0.4mph /  0.6km/h 3mph /  4.8km/h 67.8% 0.00in /  0mm 0 W/m2
00:34 65.5 °F /  18.6 °C 54.9 °F /  12.7 °C 29.94in /  1013.8hPa SE 0.4mph /  0.6km/h 3mph /  4.8km/h 68.6% 0.00in /  0mm 0 W/m2
00:39 64.9 °F /  18.3 °C 54.8 °F /  12.7 °C 29.94in /  1013.8hPa Calm   1mph /  1.6km/h 70% 0.00in /  0mm 0 W/m2
00:44 64.2 °F /  17.9 °C 54.7 °F /  12.6 °C 29.94in /  1013.8hPa Calm     71% 0.00in /  0mm 0 W/m2
00:49 63.9 °F /  17.7 °C 54.7 °F /  12.6 °C 29.94in /  1013.8hPa Calm   1mph /  1.6km/h 72% 0.00in /  0mm 0 W/m2
00:54 63.6 °F /  17.6 °C 54.4 °F /  12.4 °C 29.94in /  1013.8hPa Calm     72% 0.00in /  0mm 0 W/m2
00:59 63.2 °F /  17.3 °C 54.2 °F /  12.3 °C 29.94in /  1013.8hPa Calm   1mph /  1.6km/h 72.6% 0.00in /  0mm 0 W/m2
01:04 63.1 °F /  17.3 °C 54.2 °F /  12.3 °C 29.94in /  1013.8hPa Calm     73% 0.00in /  0mm 0 W/m2
01:09 63 °F /  17.2 °C 54.1 °F /  12.3 °C 29.93in /  1013.4hPa Calm     73% 0.00in /  0mm 0 W/m2
01:14 62.8 °F /  17.1 °C 54 °F /  12.2 °C 29.93in /  1013.4hPa Calm     73% 0.00in /  0mm 0 W/m2
01:19 62.6 °F /  17 °C 53.8 °F /  12.1 °C 29.93in /  1013.4hPa Calm     73% 0.00in /  0mm 0 W/m2
01:24 62.5 °F /  16.9 °C 53.8 °F /  12.1 °C 29.93in /  1013.4hPa ESE 0.4mph /  0.6km/h 5mph /  8km/h 73.4% 0.00in /  0mm 0 W/m2
01:29 62.8 °F /  17.1 °C 54 °F /  12.2 °C 29.93in /  1013.4hPa SE 0.5mph /  0.8km/h 4mph /  6.4km/h 73% 0.00in /  0mm 0 W/m2
01:34 63 °F /  17.2 °C 54.1 °F /  12.3 °C 29.93in /  1013.4hPa Calm   1mph /  1.6km/h 73% 0.00in /  0mm 0 W/m2
01:39 63 °F /  17.2 °C 54 °F /  12.2 °C 29.92in /  1013.1hPa SE 0.4mph /  0.6km/h 4mph /  6.4km/h 72.8% 0.00in /  0mm 0 W/m2
01:44 63.2 °F /  17.3 °C 54.1 °F /  12.3 °C 29.92in /  1013.1hPa SE 0.8mph /  1.3km/h 5mph /  8km/h 72.2% 0.00in /  0mm 0 W/m2
01:49 63.6 °F /  17.6 °C 54.1 °F /  12.3 °C 29.92in /  1013.1hPa ESE 2.8mph /  4.5km/h 6mph /  9.7km/h 71.2% 0.00in /  0mm 0 W/m2
01:54 64.1 °F /  17.8 °C 54.3 °F /  12.4 °C 29.92in /  1013.1hPa SE 1.8mph /  2.9km/h 4mph /  6.4km/h 70.4% 0.00in /  0mm 0 W/m2
01:59 64.7 °F /  18.2 °C 54.2 °F /  12.3 °C 29.91in /  1012.8hPa ESE 2.4mph /  3.9km/h 5mph /  8km/h 69% 0.00in /  0mm 0 W/m2
02:04 64.9 °F /  18.3 °C 54.1 °F /  12.3 °C 29.91in /  1012.8hPa ESE 1.9mph /  3.1km/h 5mph /  8km/h 68% 0.00in /  0mm 0 W/m2
02:09 65.1 °F /  18.4 °C 54.3 °F /  12.4 °C 29.91in /  1012.8hPa SE 3mph /  4.8km/h 6mph /  9.7km/h 67.8% 0.00in /  0mm 0 W/m2
02:14 65.4 °F /  18.6 °C 54.2 °F /  12.3 °C 29.91in /  1012.8hPa SE 2.4mph /  3.9km/h 6mph /  9.7km/h 67% 0.00in /  0mm 0 W/m2
02:19 65.5 °F /  18.6 °C 54.3 °F /  12.4 °C 29.91in /  1012.8hPa SE 2.8mph /  4.5km/h 8mph /  12.9km/h 67% 0.00in /  0mm 0 W/m2
02:24 65.4 °F /  18.6 °C 54.2 °F /  12.3 °C 29.91in /  1012.8hPa SE 3.7mph /  6km/h 8mph /  12.9km/h 67% 0.00in /  0mm 0 W/m2
02:29 65.4 °F /  18.6 °C 54.2 °F /  12.3 °C 29.91in /  1012.8hPa SE 1.6mph /  2.6km/h 6mph /  9.7km/h 67% 0.00in /  0mm 0 W/m2
02:34 65.3 °F /  18.5 °C 54.1 °F /  12.3 °C 29.90in /  1012.4hPa SE 2.5mph /  4km/h 7mph /  11.3km/h 67% 0.00in /  0mm 0 W/m2
02:39 65.2 °F /  18.4 °C 54.1 °F /  12.3 °C 29.90in /  1012.4hPa SSE 3.2mph /  5.1km/h 7mph /  11.3km/h 67% 0.00in /  0mm 0 W/m2
02:44 65.2 °F /  18.4 °C 54 °F /  12.2 °C 29.90in /  1012.4hPa SE 3.2mph /  5.1km/h 7mph /  11.3km/h 67% 0.00in /  0mm 0 W/m2
02:49 65.4 °F /  18.6 °C 54.2 °F /  12.3 °C 29.89in /  1012.1hPa SE 3.6mph /  5.8km/h 9mph /  14.5km/h 67% 0.00in /  0mm 0 W/m2
02:54 65.4 °F /  18.6 °C 54.2 °F /  12.3 °C 29.89in /  1012.1hPa SSE 2.3mph /  3.7km/h 7mph /  11.3km/h 67% 0.00in /  0mm 0 W/m2
02:59 65.3 °F /  18.5 °C 54.1 °F /  12.3 °C 29.89in /  1012.1hPa SE 2.7mph /  4.3km/h 7mph /  11.3km/h 67% 0.00in /  0mm 0 W/m2
03:04 65.1 °F /  18.4 °C 54 °F /  12.2 °C 29.89in /  1012.1hPa SE 1.6mph /  2.6km/h 7mph /  11.3km/h 67% 0.00in /  0mm 0 W/m2
03:09 65.3 °F /  18.5 °C 54.1 °F /  12.3 °C 29.88in /  1011.7hPa ESE 2.7mph /  4.3km/h 7mph /  11.3km/h 67% 0.00in /  0mm 0 W/m2
03:14 65.3 °F /  18.5 °C 54.1 °F /  12.3 °C 29.88in /  1011.7hPa SE 1.3mph /  2.1km/h 9mph /  14.5km/h 67% 0.00in /  0mm 0 W/m2
03:19 65.3 °F /  18.5 °C 54.1 °F /  12.3 °C 29.88in /  1011.7hPa SE 2.5mph /  4km/h 9mph /  14.5km/h 67% 0.00in /  0mm 0 W/m2
03:24 65.5 °F /  18.6 °C 54.3 °F /  12.4 °C 29.88in /  1011.7hPa SE 4.1mph /  6.6km/h 7mph /  11.3km/h 67% 0.00in /  0mm 0 W/m2
03:29 65.5 °F /  18.6 °C 54.3 °F /  12.4 °C 29.88in /  1011.7hPa SE 3.3mph /  5.3km/h 6mph /  9.7km/h 67% 0.00in /  0mm 0 W/m2
03:34 65.5 °F /  18.6 °C 54.3 °F /  12.4 °C 29.88in /  1011.7hPa East 4.6mph /  7.4km/h 8mph /  12.9km/h 67% 0.00in /  0mm 0 W/m2
03:39 65.6 °F /  18.7 °C 54.3 °F /  12.4 °C 29.87in /  1011.4hPa ESE 4.1mph /  6.6km/h 8mph /  12.9km/h 67% 0.00in /  0mm 0 W/m2
03:44 65.5 °F /  18.6 °C 54.3 °F /  12.4 °C 29.87in /  1011.4hPa ESE 2.9mph /  4.7km/h 7mph /  11.3km/h 67% 0.00in /  0mm 0 W/m2
03:49 65.5 °F /  18.6 °C 54.3 °F /  12.4 °C 29.87in /  1011.4hPa East 1.3mph /  2.1km/h 6mph /  9.7km/h 67% 0.00in /  0mm 0 W/m2
03:54 65.3 °F /  18.5 °C 54.5 °F /  12.5 °C 29.87in /  1011.4hPa ESE 2mph /  3.2km/h 8mph /  12.9km/h 67.8% 0.00in /  0mm 0 W/m2
03:59 65.3 °F /  18.5 °C 54.5 °F /  12.5 °C 29.87in /  1011.4hPa ESE 3.3mph /  5.3km/h 8mph /  12.9km/h 68% 0.00in /  0mm 0 W/m2
04:04 65.2 °F /  18.4 °C 54.3 °F /  12.4 °C 29.87in /  1011.4hPa ESE 3.4mph /  5.5km/h 8mph /  12.9km/h 68% 0.00in /  0mm 0 W/m2
04:09 65.1 °F /  18.4 °C 54.3 °F /  12.4 °C 29.86in /  1011.1hPa ESE 4.1mph /  6.6km/h 9mph /  14.5km/h 68% 0.00in /  0mm 0 W/m2
04:14 65.1 °F /  18.4 °C 54.3 °F /  12.4 °C 29.86in /  1011.1hPa East 4.5mph /  7.2km/h 11mph /  17.7km/h 68% 0.00in /  0mm 0 W/m2
04:19 65.1 °F /  18.4 °C 54.3 °F /  12.4 °C 29.86in /  1011.1hPa ESE 4.5mph /  7.2km/h 10mph /  16.1km/h 68% 0.00in /  0mm 0 W/m2
04:24 65.1 °F /  18.4 °C 54.3 °F /  12.4 °C 29.86in /  1011.1hPa ESE 3.4mph /  5.5km/h 9mph /  14.5km/h 68% 0.00in /  0mm 0 W/m2
04:29 65.1 °F /  18.4 °C 54.3 °F /  12.4 °C 29.86in /  1011.1hPa ESE 3.7mph /  6km/h 11mph /  17.7km/h 68% 0.00in /  0mm 0 W/m2
04:34 65.1 °F /  18.4 °C 54.3 °F /  12.4 °C 29.86in /  1011.1hPa East 1mph /  1.6km/h 8mph /  12.9km/h 68% 0.00in /  0mm 0 W/m2
04:39 64.9 °F /  18.3 °C 54.5 °F /  12.5 °C 29.86in /  1011.1hPa ESE 1.4mph /  2.3km/h 6mph /  9.7km/h 69% 0.00in /  0mm 0 W/m2
04:44 64.9 °F /  18.3 °C 54.5 °F /  12.5 °C 29.85in /  1010.7hPa East 2.4mph /  3.9km/h 7mph /  11.3km/h 69% 0.00in /  0mm 0 W/m2
04:49 64.9 °F /  18.3 °C 54.5 °F /  12.5 °C 29.85in /  1010.7hPa ESE 3mph /  4.8km/h 7mph /  11.3km/h 69% 0.00in /  0mm 0 W/m2
04:53 65.1 °F /  18.4 °C 54.7 °F /  12.6 °C 29.85in /  1010.7hPa East 4.7mph /  7.6km/h 12mph /  19.3km/h 69% 0.00in /  0mm 0 W/m2
04:59 65.1 °F /  18.4 °C 54.7 °F /  12.6 °C 29.85in /  1010.7hPa East 2mph /  3.2km/h 12mph /  19.3km/h 69% 0.00in /  0mm 0 W/m2
05:04 65.3 °F /  18.5 °C 54.9 °F /  12.7 °C 29.85in /  1010.7hPa ESE 3.2mph /  5.1km/h 7mph /  11.3km/h 69% 0.00in /  0mm 0 W/m2
05:09 65.3 °F /  18.5 °C 54.9 °F /  12.7 °C 29.85in /  1010.7hPa ESE 3.2mph /  5.1km/h 8mph /  12.9km/h 69% 0.00in /  0mm 0 W/m2
05:14 65.4 °F /  18.6 °C 54.8 °F /  12.7 °C 29.85in /  1010.7hPa East 5mph /  8km/h 10mph /  16.1km/h 68.4% 0.00in /  0mm 0 W/m2
05:19 65.5 °F /  18.6 °C 54.9 °F /  12.7 °C 29.85in /  1010.7hPa ESE 2.5mph /  4km/h 7mph /  11.3km/h 68.8% 0.00in /  0mm 0 W/m2
05:24 65.5 °F /  18.6 °C 54.9 °F /  12.7 °C 29.84in /  1010.4hPa ESE 3mph /  4.8km/h 7mph /  11.3km/h 68.8% 0.00in /  0mm 0 W/m2
05:29 65.5 °F /  18.6 °C 54.8 °F /  12.7 °C 29.84in /  1010.4hPa SE 3.6mph /  5.8km/h 8mph /  12.9km/h 68.4% 0.00in /  0mm 0 W/m2
05:34 65.3 °F /  18.5 °C 54.7 °F /  12.6 °C 29.84in /  1010.4hPa ESE 2.6mph /  4.2km/h 7mph /  11.3km/h 68.6% 0.00in /  0mm 0 W/m2
05:39 65.1 °F /  18.4 °C 54.7 °F /  12.6 °C 29.84in /  1010.4hPa ESE 5.2mph /  8.4km/h 9mph /  14.5km/h 69% 0.00in /  0mm 5 W/m2
05:44 65.1 °F /  18.4 °C 54.7 °F /  12.6 °C 29.84in /  1010.4hPa ESE 3.4mph /  5.5km/h 7mph /  11.3km/h 69% 0.00in /  0mm 7 W/m2
05:49 65.1 °F /  18.4 °C 54.7 °F /  12.6 °C 29.84in /  1010.4hPa ESE 2mph /  3.2km/h 7mph /  11.3km/h 69% 0.00in /  0mm 11 W/m2
05:54 64.9 °F /  18.3 °C 54.6 °F /  12.6 °C 29.84in /  1010.4hPa ESE 3.2mph /  5.1km/h 10mph /  16.1km/h 69% 0.00in /  0mm 12 W/m2
05:59 65 °F /  18.3 °C 54.6 °F /  12.6 °C 29.84in /  1010.4hPa ESE 3mph /  4.8km/h 9mph /  14.5km/h 69% 0.00in /  0mm 14 W/m2
06:04 64.9 °F /  18.3 °C 54.5 °F /  12.5 °C 29.84in /  1010.4hPa ESE 3.5mph /  5.6km/h 6mph /  9.7km/h 69% 0.00in /  0mm 16 W/m2
06:09 64.9 °F /  18.3 °C 54.5 °F /  12.5 °C 29.84in /  1010.4hPa East 6.2mph /  10km/h 9mph /  14.5km/h 69% 0.00in /  0mm 19 W/m2
06:14 65.1 °F /  18.4 °C 54.7 °F /  12.6 °C 29.84in /  1010.4hPa East 3.3mph /  5.3km/h 9mph /  14.5km/h 69% 0.00in /  0mm 21 W/m2
06:19 65.1 °F /  18.4 °C 54.7 °F /  12.6 °C 29.84in /  1010.4hPa East 4.1mph /  6.6km/h 8mph /  12.9km/h 69% 0.00in /  0mm 23 W/m2
06:24 65 °F /  18.3 °C 54.6 °F /  12.6 °C 29.84in /  1010.4hPa East 2mph /  3.2km/h 7mph /  11.3km/h 69% 0.00in /  0mm 25 W/m2
06:29 64.9 °F /  18.3 °C 54.5 °F /  12.5 °C 29.84in /  1010.4hPa East 2.5mph /  4km/h 7mph /  11.3km/h 69% 0.00in /  0mm 26 W/m2
06:34 64.9 °F /  18.3 °C 54.8 °F /  12.7 °C 29.84in /  1010.4hPa East 1mph /  1.6km/h 6mph /  9.7km/h 69.8% 0.00in /  0mm 28 W/m2
06:39 64.9 °F /  18.3 °C 54.9 °F /  12.7 °C 29.83in /  1010hPa East 0.6mph /  1km/h 7mph /  11.3km/h 70% 0.00in /  0mm 30 W/m2
06:44 64.9 °F /  18.3 °C 54.9 °F /  12.7 °C 29.83in /  1010hPa East 1mph /  1.6km/h 6mph /  9.7km/h 70% 0.00in /  0mm 32 W/m2
06:49 64.9 °F /  18.3 °C 54.9 °F /  12.7 °C 29.83in /  1010hPa ESE 1.6mph /  2.6km/h 7mph /  11.3km/h 70% 0.00in /  0mm 33 W/m2
06:54 65.1 °F /  18.4 °C 55 °F /  12.8 °C 29.83in /  1010hPa ESE 1.7mph /  2.7km/h 8mph /  12.9km/h 70% 0.00in /  0mm 37 W/m2
06:59 65.4 °F /  18.6 °C 55.1 °F /  12.8 °C 29.83in /  1010hPa East 1.6mph /  2.6km/h 8mph /  12.9km/h 69.4% 0.00in /  0mm 42 W/m2
07:04 65.7 °F /  18.7 °C 55.4 °F /  13 °C 29.83in /  1010hPa ESE 1.3mph /  2.1km/h 5mph /  8km/h 69.4% 0.00in /  0mm 51 W/m2
07:09 66 °F /  18.9 °C 55.6 °F /  13.1 °C 29.82in /  1009.7hPa ESE 4mph /  6.4km/h 11mph /  17.7km/h 69% 0.00in /  0mm 63 W/m2
07:14 66.5 °F /  19.2 °C 55.9 °F /  13.3 °C 29.82in /  1009.7hPa ESE 3mph /  4.8km/h 9mph /  14.5km/h 68.8% 0.00in /  0mm 74 W/m2
07:19 66.6 °F /  19.2 °C 55.9 °F /  13.3 °C 29.82in /  1009.7hPa ESE 2.5mph /  4km/h 7mph /  11.3km/h 68.4% 0.00in /  0mm 88 W/m2
07:24 66.9 °F /  19.4 °C 55.9 °F /  13.3 °C 29.82in /  1009.7hPa ESE 4.2mph /  6.8km/h 9mph /  14.5km/h 68% 0.00in /  0mm 104 W/m2
07:29 67.3 °F /  19.6 °C 56.2 °F /  13.4 °C 29.82in /  1009.7hPa ESE 2.7mph /  4.3km/h 8mph /  12.9km/h 67.8% 0.00in /  0mm 118 W/m2
07:34 67.6 °F /  19.8 °C 56.3 °F /  13.5 °C 29.82in /  1009.7hPa SE 2.9mph /  4.7km/h 8mph /  12.9km/h 67.2% 0.00in /  0mm 134 W/m2
07:39 67.8 °F /  19.9 °C 56.5 °F /  13.6 °C 29.82in /  1009.7hPa ESE 4.4mph /  7.1km/h 9mph /  14.5km/h 67% 0.00in /  0mm 151 W/m2
07:44 68.3 °F /  20.2 °C 56.9 °F /  13.8 °C 29.82in /  1009.7hPa ESE 5.3mph /  8.5km/h 10mph /  16.1km/h 67% 0.00in /  0mm 165 W/m2
07:49 68.5 °F /  20.3 °C 56.8 °F /  13.8 °C 29.82in /  1009.7hPa East 4.9mph /  7.9km/h 10mph /  16.1km/h 66.4% 0.00in /  0mm 179 W/m2
07:54 68.8 °F /  20.4 °C 57 °F /  13.9 °C 29.82in /  1009.7hPa East 4.1mph /  6.6km/h 10mph /  16.1km/h 66.2% 0.00in /  0mm 195 W/m2
07:59 69.2 °F /  20.7 °C 57.3 °F /  14.1 °C 29.82in /  1009.7hPa ESE 3.3mph /  5.3km/h 9mph /  14.5km/h 66% 0.00in /  0mm 211 W/m2
08:04 69.6 °F /  20.9 °C 57.4 °F /  14.1 °C 29.82in /  1009.7hPa ESE 3.9mph /  6.3km/h 8mph /  12.9km/h 65% 0.00in /  0mm 227 W/m2
08:09 70.1 °F /  21.2 °C 57.8 °F /  14.3 °C 29.82in /  1009.7hPa ESE 3.2mph /  5.1km/h 8mph /  12.9km/h 65% 0.00in /  0mm 243 W/m2
08:14 70.4 °F /  21.3 °C 57.8 °F /  14.3 °C 29.82in /  1009.7hPa ESE 4.7mph /  7.6km/h 8mph /  12.9km/h 64.2% 0.00in /  0mm 258 W/m2
08:19 70.9 °F /  21.6 °C 57.9 °F /  14.4 °C 29.82in /  1009.7hPa SE 6.8mph /  10.9km/h 11mph /  17.7km/h 63.6% 0.00in /  0mm 271 W/m2
08:24 71.3 °F /  21.8 °C 57.9 °F /  14.4 °C 29.82in /  1009.7hPa ESE 4.8mph /  7.7km/h 10mph /  16.1km/h 62.8% 0.00in /  0mm 283 W/m2
08:29 71.6 °F /  22 °C 57.9 °F /  14.4 °C 29.82in /  1009.7hPa ESE 7.3mph /  11.7km/h 16mph /  25.7km/h 62% 0.00in /  0mm 301 W/m2
08:34 72 °F /  22.2 °C 57.9 °F /  14.4 °C 29.82in /  1009.7hPa ESE 7.5mph /  12.1km/h 16mph /  25.7km/h 61.2% 0.00in /  0mm 318 W/m2
08:39 72.4 °F /  22.4 °C 58 °F /  14.4 °C 29.82in /  1009.7hPa SE 7mph /  11.3km/h 14mph /  22.5km/h 60.6% 0.00in /  0mm 336 W/m2
08:44 72.7 °F /  22.6 °C 58.1 °F /  14.5 °C 29.82in /  1009.7hPa SE 6.5mph /  10.5km/h 13mph /  20.9km/h 60.2% 0.00in /  0mm 350 W/m2
08:49 73 °F /  22.8 °C 58.3 °F /  14.6 °C 29.82in /  1009.7hPa SE 6.1mph /  9.8km/h 15mph /  24.1km/h 60% 0.00in /  0mm 366 W/m2
08:54 73.4 °F /  23 °C 58.6 °F /  14.8 °C 29.81in /  1009.4hPa SE 4.8mph /  7.7km/h 12mph /  19.3km/h 60% 0.00in /  0mm 378 W/m2
08:59 73.8 °F /  23.2 °C 58.8 °F /  14.9 °C 29.82in /  1009.7hPa ESE 3.9mph /  6.3km/h 9mph /  14.5km/h 59.6% 0.00in /  0mm 390 W/m2
09:04 74.2 °F /  23.4 °C 58.9 °F /  14.9 °C 29.82in /  1009.7hPa ESE 4.7mph /  7.6km/h 11mph /  17.7km/h 59% 0.00in /  0mm 403 W/m2
09:09 74.7 °F /  23.7 °C 59.2 °F /  15.1 °C 29.82in /  1009.7hPa SE 4.4mph /  7.1km/h 15mph /  24.1km/h 58.6% 0.00in /  0mm 415 W/m2
09:14 75 °F /  23.9 °C 59.2 °F /  15.1 °C 29.82in /  1009.7hPa SE 5.8mph /  9.3km/h 11mph /  17.7km/h 58% 0.00in /  0mm 429 W/m2
09:19 75.2 °F /  24 °C 59.5 °F /  15.3 °C 29.82in /  1009.7hPa SE 4.6mph /  7.4km/h 9mph /  14.5km/h 58.2% 0.00in /  0mm 443 W/m2
09:24 75.8 °F /  24.3 °C 59.9 °F /  15.5 °C 29.82in /  1009.7hPa East 4.4mph /  7.1km/h 10mph /  16.1km/h 58% 0.00in /  0mm 454 W/m2
09:29 76.5 °F /  24.7 °C 60.3 °F /  15.7 °C 29.81in /  1009.4hPa ESE 4.2mph /  6.8km/h 11mph /  17.7km/h 57.4% 0.00in /  0mm 468 W/m2
09:34 76.8 °F /  24.9 °C 60.3 °F /  15.7 °C 29.81in /  1009.4hPa SE 4.7mph /  7.6km/h 10mph /  16.1km/h 56.8% 0.00in /  0mm 475 W/m2
09:39 76.9 °F /  24.9 °C 60.1 °F /  15.6 °C 29.81in /  1009.4hPa SSE 3.2mph /  5.1km/h 9mph /  14.5km/h 56.2% 0.00in /  0mm 487 W/m2
09:43 77.1 °F /  25.1 °C 60.1 °F /  15.6 °C 29.81in /  1009.4hPa SE 4.7mph /  7.6km/h 9mph /  14.5km/h 55.8% 0.00in /  0mm 497 W/m2
09:49 77.3 °F /  25.2 °C 59.6 °F /  15.3 °C 29.81in /  1009.4hPa SE 5mph /  8km/h 11mph /  17.7km/h 54.5% 0.00in /  0mm 508 W/m2
09:54 77.8 °F /  25.4 °C 60.3 °F /  15.7 °C 29.81in /  1009.4hPa ESE 5.4mph /  8.7km/h 10mph /  16.1km/h 55% 0.00in /  0mm 519 W/m2
09:59 78.2 °F /  25.7 °C 60.4 °F /  15.8 °C 29.81in /  1009.4hPa SE 6.4mph /  10.3km/h 11mph /  17.7km/h 54.4% 0.00in /  0mm 531 W/m2
10:04 78.9 °F /  26.1 °C 60.8 °F /  16 °C 29.81in /  1009.4hPa ESE 7.4mph /  11.9km/h 11mph /  17.7km/h 53.8% 0.00in /  0mm 541 W/m2
10:09 79.2 °F /  26.2 °C 61.1 °F /  16.2 °C 29.81in /  1009.4hPa SSE 1.9mph /  3.1km/h 11mph /  17.7km/h 53.8% 0.00in /  0mm 552 W/m2
10:14 79.1 °F /  26.2 °C 61 °F /  16.1 °C 29.81in /  1009.4hPa SSE 2.7mph /  4.3km/h 9mph /  14.5km/h 53.8% 0.00in /  0mm 563 W/m2
10:19 79.6 °F /  26.4 °C 61.5 °F /  16.4 °C 29.81in /  1009.4hPa SE 3.4mph /  5.5km/h 10mph /  16.1km/h 54.2% 0.00in /  0mm 573 W/m2
10:24 80.4 °F /  26.9 °C 61.8 °F /  16.6 °C 29.80in /  1009hPa SSE 2.4mph /  3.9km/h 7mph /  11.3km/h 53% 0.00in /  0mm 584 W/m2
10:29 80.4 °F /  26.9 °C 61.7 °F /  16.5 °C 29.80in /  1009hPa South 2.6mph /  4.2km/h 7mph /  11.3km/h 53% 0.00in /  0mm 591 W/m2
10:34 80.7 °F /  27.1 °C 61.8 °F /  16.6 °C 29.80in /  1009hPa SE 3.2mph /  5.1km/h 9mph /  14.5km/h 52.6% 0.00in /  0mm 599 W/m2
10:39 81.5 °F /  27.5 °C 61.9 °F /  16.6 °C 29.80in /  1009hPa SE 4.4mph /  7.1km/h 11mph /  17.7km/h 51.4% 0.00in /  0mm 610 W/m2
10:44 81.9 °F /  27.7 °C 62.2 °F /  16.8 °C 29.79in /  1008.7hPa SE 5.7mph /  9.2km/h 10mph /  16.1km/h 51.4% 0.00in /  0mm 619 W/m2
10:49 82 °F /  27.8 °C 62.1 °F /  16.7 °C 29.80in /  1009hPa SE 3.7mph /  6km/h 10mph /  16.1km/h 51% 0.00in /  0mm 626 W/m2
10:53 82.7 °F /  28.2 °C 62.4 °F /  16.9 °C 29.79in /  1008.7hPa ESE 4.2mph /  6.8km/h 9mph /  14.5km/h 50.5% 0.00in /  0mm 636 W/m2
10:59 82.8 °F /  28.2 °C 62.4 °F /  16.9 °C 29.79in /  1008.7hPa SE 4.7mph /  7.6km/h 9mph /  14.5km/h 50.2% 0.00in /  0mm 645 W/m2
11:04 82.9 °F /  28.3 °C 62.4 °F /  16.9 °C 29.79in /  1008.7hPa SE 2.4mph /  3.9km/h 8mph /  12.9km/h 50% 0.00in /  0mm 656 W/m2
11:09 83.2 °F /  28.4 °C 62.4 °F /  16.9 °C 29.79in /  1008.7hPa SSE 4mph /  6.4km/h 8mph /  12.9km/h 49.6% 0.00in /  0mm 689 W/m2
11:14 83 °F /  28.3 °C 62 °F /  16.7 °C 29.79in /  1008.7hPa SSW 3.3mph /  5.3km/h 8mph /  12.9km/h 49% 0.00in /  0mm 635 W/m2
11:19 82.9 °F /  28.3 °C 61.9 °F /  16.6 °C 29.79in /  1008.7hPa South 3.7mph /  6km/h 10mph /  16.1km/h 49% 0.00in /  0mm 795 W/m2
11:29 83.5 °F /  28.6 °C 61.9 °F /  16.6 °C 29.79in /  1008.7hPa South 4.5mph /  7.2km/h 10mph /  16.1km/h 48.4% 0.00in /  0mm 795 W/m2
11:34 83.8 °F /  28.8 °C 62 °F /  16.7 °C 29.78in /  1008.4hPa SSE 3.2mph /  5.1km/h 8mph /  12.9km/h 48% 0.00in /  0mm 846 W/m2
11:44 84.7 °F /  29.3 °C 62.4 °F /  16.9 °C 29.78in /  1008.4hPa South 3.5mph /  5.6km/h 11mph /  17.7km/h 47.3% 0.00in /  0mm 853 W/m2
11:49 84.8 °F /  29.3 °C 62.1 °F /  16.7 °C 29.78in /  1008.4hPa SSE 5.6mph /  9km/h 11mph /  17.7km/h 46.6% 0.00in /  0mm 812 W/m2
11:54 84.4 °F /  29.1 °C 62.4 °F /  16.9 °C 29.78in /  1008.4hPa South 9mph /  14.5km/h 13mph /  20.9km/h 47.6% 0.00in /  0mm 756 W/m2
11:59 84.5 °F /  29.2 °C 62.4 °F /  16.9 °C 29.78in /  1008.4hPa South 6.2mph /  10km/h 11mph /  17.7km/h 47.6% 0.00in /  0mm 722 W/m2
12:04 84.7 °F /  29.3 °C 62.4 °F /  16.9 °C 29.78in /  1008.4hPa South 7.1mph /  11.4km/h 11mph /  17.7km/h 47.2% 0.00in /  0mm 721 W/m2
12:09 85.2 °F /  29.6 °C 62.3 °F /  16.8 °C 29.78in /  1008.4hPa SSE 6.2mph /  10km/h 12mph /  19.3km/h 46.4% 0.00in /  0mm 728 W/m2
12:14 85.5 °F /  29.7 °C 62.6 °F /  17 °C 29.78in /  1008.4hPa South 4.1mph /  6.6km/h 10mph /  16.1km/h 46.4% 0.00in /  0mm 733 W/m2
12:19 86 °F /  30 °C 62.7 °F /  17.1 °C 29.78in /  1008.4hPa SSE 5.5mph /  8.9km/h 8mph /  12.9km/h 45.8% 0.00in /  0mm 740 W/m2
12:24 86.2 °F /  30.1 °C 62.6 °F /  17 °C 29.78in /  1008.4hPa SSE 3.7mph /  6km/h 9mph /  14.5km/h 45.6% 0.00in /  0mm 742 W/m2
12:29 86.3 °F /  30.2 °C 62.6 °F /  17 °C 29.78in /  1008.4hPa SSW 6mph /  9.7km/h 13mph /  20.9km/h 45.2% 0.00in /  0mm 749 W/m2
12:34 87 °F /  30.6 °C 62.6 °F /  17 °C 29.78in /  1008.4hPa SW 5.1mph /  8.2km/h 8mph /  12.9km/h 44.2% 0.00in /  0mm 749 W/m2
12:38 87.3 °F /  30.7 °C 63.3 °F /  17.4 °C 29.78in /  1008.4hPa SSW 6mph /  9.7km/h 10mph /  16.1km/h 45% 0.00in /  0mm 752 W/m2
12:44 87.4 °F /  30.8 °C 62.8 °F /  17.1 °C 29.78in /  1008.4hPa South 2.5mph /  4km/h 9mph /  14.5km/h 44% 0.00in /  0mm 756 W/m2
12:49 87 °F /  30.6 °C 62.6 °F /  17 °C 29.78in /  1008.4hPa SSE 4.5mph /  7.2km/h 12mph /  19.3km/h 44.2% 0.00in /  0mm 758 W/m2
12:54 86.5 °F /  30.3 °C 62.6 °F /  17 °C 29.78in /  1008.4hPa South 4.8mph /  7.7km/h 11mph /  17.7km/h 45% 0.00in /  0mm 763 W/m2
12:59 87.1 °F /  30.6 °C 63.3 °F /  17.4 °C 29.78in /  1008.4hPa South 3mph /  4.8km/h 7mph /  11.3km/h 45.2% 0.00in /  0mm 761 W/m2
13:04 87.7 °F /  30.9 °C 63.2 °F /  17.3 °C 29.78in /  1008.4hPa South 6.3mph /  10.1km/h 11mph /  17.7km/h 44.2% 0.00in /  0mm 766 W/m2
13:09 86.2 °F /  30.1 °C 62.6 °F /  17 °C 29.78in /  1008.4hPa South 5.6mph /  9km/h 10mph /  16.1km/h 45.4% 0.00in /  0mm 770 W/m2
13:14 86.3 °F /  30.2 °C 63 °F /  17.2 °C 29.78in /  1008.4hPa South 3.6mph /  5.8km/h 8mph /  12.9km/h 45.8% 0.00in /  0mm 770 W/m2
13:19 87 °F /  30.6 °C 63.5 °F /  17.5 °C 29.78in /  1008.4hPa SSE 4mph /  6.4km/h 7mph /  11.3km/h 45.6% 0.00in /  0mm 772 W/m2
13:29 87.8 °F /  31 °C 64.2 °F /  17.9 °C 29.78in /  1008.4hPa WSW 4.8mph /  7.7km/h 8mph /  12.9km/h 45.6% 0.00in /  0mm 770 W/m2
13:34 87.6 °F /  30.9 °C 64.1 °F /  17.8 °C 29.78in /  1008.4hPa South 5.1mph /  8.2km/h 11mph /  17.7km/h 45.8% 0.00in /  0mm 770 W/m2
13:39 87.3 °F /  30.7 °C 64.7 °F /  18.2 °C 29.78in /  1008.4hPa WSW 5.1mph /  8.2km/h 9mph /  14.5km/h 47.2% 0.00in /  0mm 770 W/m2
13:44 87.4 °F /  30.8 °C 64.9 °F /  18.3 °C 29.78in /  1008.4hPa West 6mph /  9.7km/h 12mph /  19.3km/h 47.2% 0.00in /  0mm 765 W/m2
13:49 87.7 °F /  30.9 °C 65.4 °F /  18.6 °C 29.78in /  1008.4hPa WSW 4.5mph /  7.2km/h 10mph /  16.1km/h 47.8% 0.00in /  0mm 766 W/m2
13:54 87.6 °F /  30.9 °C 65.5 °F /  18.6 °C 29.78in /  1008.4hPa West 7mph /  11.3km/h 10mph /  16.1km/h 48% 0.00in /  0mm 763 W/m2
13:59 87.4 °F /  30.8 °C 65.5 °F /  18.6 °C 29.77in /  1008hPa WSW 3.8mph /  6.1km/h 10mph /  16.1km/h 48.4% 0.00in /  0mm 763 W/m2
14:09 87.8 °F /  31 °C 66.2 °F /  19 °C 29.78in /  1008.4hPa West 5.2mph /  8.4km/h 10mph /  16.1km/h 49% 0.00in /  0mm 758 W/m2
14:14 87.7 °F /  30.9 °C 66.3 °F /  19.1 °C 29.78in /  1008.4hPa WNW 5.7mph /  9.2km/h 11mph /  17.7km/h 49.3% 0.00in /  0mm 752 W/m2
14:19 87.6 °F /  30.9 °C 66.8 °F /  19.3 °C 29.78in /  1008.4hPa WSW 2mph /  3.2km/h 8mph /  12.9km/h 50.2% 0.00in /  0mm 749 W/m2
14:24 88.2 °F /  31.2 °C 66.7 °F /  19.3 °C 29.78in /  1008.4hPa SW 3.7mph /  6km/h 9mph /  14.5km/h 49.2% 0.00in /  0mm 768 W/m2
14:29 88.6 °F /  31.4 °C 67.3 °F /  19.6 °C 29.77in /  1008hPa West 3.2mph /  5.1km/h 9mph /  14.5km/h 49.6% 0.00in /  0mm 805 W/m2
14:34 88 °F /  31.1 °C 66.9 °F /  19.4 °C 29.77in /  1008hPa WSW 5mph /  8km/h 10mph /  16.1km/h 49.8% 0.00in /  0mm 707 W/m2
14:39 87.8 °F /  31 °C 67.2 °F /  19.6 °C 29.77in /  1008hPa WSW 3.4mph /  5.5km/h 8mph /  12.9km/h 50.6% 0.00in /  0mm 221 W/m2
14:44 88.2 °F /  31.2 °C 67.4 °F /  19.7 °C 29.77in /  1008hPa WSW 4mph /  6.4km/h 10mph /  16.1km/h 50.4% 0.00in /  0mm 543 W/m2
14:49 88.3 °F /  31.3 °C 67.4 °F /  19.7 °C 29.77in /  1008hPa SW 4.1mph /  6.6km/h 9mph /  14.5km/h 50.2% 0.00in /  0mm 810 W/m2
14:54 88 °F /  31.1 °C 67.1 °F /  19.5 °C 29.77in /  1008hPa WSW 7.1mph /  11.4km/h 12mph /  19.3km/h 50.2% 0.00in /  0mm 831 W/m2
14:59 87.4 °F /  30.8 °C 67.5 °F /  19.7 °C 29.77in /  1008hPa West 7.2mph /  11.6km/h 13mph /  20.9km/h 51.8% 0.00in /  0mm 789 W/m2
15:04 87.6 °F /  30.9 °C 67.5 °F /  19.7 °C 29.77in /  1008hPa West 6.2mph /  10km/h 11mph /  17.7km/h 51.4% 0.00in /  0mm 752 W/m2
15:09 88.3 °F /  31.3 °C 68.3 °F /  20.2 °C 29.77in /  1008hPa WSW 3.5mph /  5.6km/h 11mph /  17.7km/h 51.8% 0.00in /  0mm 703 W/m2
15:14 88.3 °F /  31.3 °C 67.6 °F /  19.8 °C 29.78in /  1008.4hPa SW 8.2mph /  13.2km/h 14mph /  22.5km/h 50.4% 0.00in /  0mm 731 W/m2
15:19 87.3 °F /  30.7 °C 67.5 °F /  19.7 °C 29.78in /  1008.4hPa West 6.4mph /  10.3km/h 12mph /  19.3km/h 52% 0.00in /  0mm 777 W/m2
15:24 87.5 °F /  30.8 °C 67.5 °F /  19.7 °C 29.78in /  1008.4hPa West 8.3mph /  13.4km/h 12mph /  19.3km/h 51.6% 0.00in /  0mm 777 W/m2
15:29 86.5 °F /  30.3 °C 67.7 °F /  19.8 °C 29.78in /  1008.4hPa WNW 8mph /  12.9km/h 16mph /  25.7km/h 53.6% 0.00in /  0mm 476 W/m2
15:34 84.5 °F /  29.2 °C 67.3 °F /  19.6 °C 29.78in /  1008.4hPa West 6.7mph /  10.8km/h 13mph /  20.9km/h 56.4% 0.00in /  0mm 278 W/m2
15:39 83.4 °F /  28.6 °C 67.3 °F /  19.6 °C 29.79in /  1008.7hPa WNW 7.8mph /  12.6km/h 16mph /  25.7km/h 58.4% 0.00in /  0mm 287 W/m2
15:44 82.4 °F /  28 °C 66.9 °F /  19.4 °C 29.79in /  1008.7hPa WNW 7.6mph /  12.2km/h 16mph /  25.7km/h 59.6% 0.00in /  0mm 279 W/m2
15:49 81.1 °F /  27.3 °C 66.6 °F /  19.2 °C 29.80in /  1009hPa WNW 9.6mph /  15.4km/h 16mph /  25.7km/h 61.4% 0.00in /  0mm 318 W/m2
15:54 80.4 °F /  26.9 °C 66.7 °F /  19.3 °C 29.80in /  1009hPa WNW 7.2mph /  11.6km/h 16mph /  25.7km/h 63% 0.00in /  0mm 378 W/m2
15:58 79.5 °F /  26.4 °C 65.9 °F /  18.8 °C 29.80in /  1009hPa NW 11mph /  17.7km/h 16mph /  25.7km/h 63.3% 0.00in /  0mm 427 W/m2
16:04 78.3 °F /  25.7 °C 64.6 °F /  18.1 °C 29.80in /  1009hPa NNW 11mph /  17.7km/h 15mph /  24.1km/h 63% 0.00in /  0mm 408 W/m2
16:09 78.2 °F /  25.7 °C 64.7 °F /  18.2 °C 29.81in /  1009.4hPa NW 4.7mph /  7.6km/h 15mph /  24.1km/h 63.4% 0.00in /  0mm 380 W/m2
16:14 78.2 °F /  25.7 °C 65.2 °F /  18.4 °C 29.81in /  1009.4hPa WNW 10.2mph /  16.4km/h 18mph /  29km/h 64.4% 0.00in /  0mm 464 W/m2
16:19 77.3 °F /  25.2 °C 65.2 °F /  18.4 °C 29.81in /  1009.4hPa WNW 8.4mph /  13.5km/h 18mph /  29km/h 66.3% 0.00in /  0mm 373 W/m2
16:24 77 °F /  25 °C 65.1 °F /  18.4 °C 29.81in /  1009.4hPa NW 7.8mph /  12.6km/h 12mph /  19.3km/h 67% 0.00in /  0mm 271 W/m2
16:29 76.7 °F /  24.8 °C 65.4 °F /  18.6 °C 29.82in /  1009.7hPa West 5.9mph /  9.5km/h 15mph /  24.1km/h 68% 0.00in /  0mm 313 W/m2
16:34 76.4 °F /  24.7 °C 65.1 °F /  18.4 °C 29.82in /  1009.7hPa West 8.7mph /  14km/h 15mph /  24.1km/h 68% 0.00in /  0mm 301 W/m2
16:39 76 °F /  24.4 °C 64.7 °F /  18.2 °C 29.82in /  1009.7hPa WNW 9.6mph /  15.4km/h 15mph /  24.1km/h 68.2% 0.00in /  0mm 262 W/m2
16:44 75.5 °F /  24.2 °C 64.4 °F /  18 °C 29.82in /  1009.7hPa WNW 7.4mph /  11.9km/h 13mph /  20.9km/h 68.6% 0.00in /  0mm 204 W/m2
16:49 75.3 °F /  24.1 °C 64.5 °F /  18.1 °C 29.82in /  1009.7hPa West 7mph /  11.3km/h 11mph /  17.7km/h 69% 0.00in /  0mm 220 W/m2
16:54 74.9 °F /  23.8 °C 63.9 °F /  17.7 °C 29.82in /  1009.7hPa West 7.5mph /  12.1km/h 15mph /  24.1km/h 68.8% 0.00in /  0mm 216 W/m2
16:59 74.1 °F /  23.4 °C 63.3 °F /  17.4 °C 29.82in /  1009.7hPa WNW 6.6mph /  10.6km/h 16mph /  25.7km/h 69% 0.00in /  0mm 172 W/m2
17:04 73.8 °F /  23.2 °C 63 °F /  17.2 °C 29.82in /  1009.7hPa West 8.2mph /  13.2km/h 12mph /  19.3km/h 69% 0.00in /  0mm 113 W/m2
17:09 73.6 °F /  23.1 °C 62.5 °F /  16.9 °C 29.82in /  1009.7hPa WNW 6.5mph /  10.5km/h 13mph /  20.9km/h 68.4% 0.00in /  0mm 123 W/m2
17:14 73.2 °F /  22.9 °C 62.3 °F /  16.8 °C 29.82in /  1009.7hPa WNW 6.4mph /  10.3km/h 11mph /  17.7km/h 68.6% 0.00in /  0mm 156 W/m2
17:19 73.3 °F /  22.9 °C 62.5 °F /  16.9 °C 29.82in /  1009.7hPa WNW 7mph /  11.3km/h 15mph /  24.1km/h 69% 0.00in /  0mm 183 W/m2
17:24 73 °F /  22.8 °C 62.4 °F /  16.9 °C 29.83in /  1010hPa WNW 8mph /  12.9km/h 16mph /  25.7km/h 69.6% 0.00in /  0mm 178 W/m2
17:29 72.9 °F /  22.7 °C 62.8 °F /  17.1 °C 29.83in /  1010hPa WNW 6.6mph /  10.6km/h 12mph /  19.3km/h 70.6% 0.00in /  0mm 176 W/m2
17:34 72.7 °F /  22.6 °C 62.9 °F /  17.2 °C 29.83in /  1010hPa WNW 7.8mph /  12.6km/h 13mph /  20.9km/h 71.3% 0.00in /  0mm 176 W/m2
17:39 72.6 °F /  22.6 °C 63.1 °F /  17.3 °C 29.83in /  1010hPa WNW 4.9mph /  7.9km/h 16mph /  25.7km/h 72.2% 0.00in /  0mm 172 W/m2
17:44 72.3 °F /  22.4 °C 63.1 °F /  17.3 °C 29.83in /  1010hPa WNW 7.4mph /  11.9km/h 13mph /  20.9km/h 73% 0.00in /  0mm 149 W/m2
17:49 72.3 °F /  22.4 °C 63.3 °F /  17.4 °C 29.83in /  1010hPa WNW 7.8mph /  12.6km/h 12mph /  19.3km/h 73.6% 0.00in /  0mm 113 W/m2
17:54 72.2 °F /  22.3 °C 63.4 °F /  17.4 °C 29.84in /  1010.4hPa WNW 7.4mph /  11.9km/h 13mph /  20.9km/h 74% 0.00in /  0mm 172 W/m2
17:59 72.1 °F /  22.3 °C 63.3 °F /  17.4 °C 29.83in /  1010hPa WNW 7.8mph /  12.6km/h 12mph /  19.3km/h 74% 0.00in /  0mm 193 W/m2
18:04 72.1 °F /  22.3 °C 63.3 °F /  17.4 °C 29.83in /  1010hPa WNW 5.6mph /  9km/h 13mph /  20.9km/h 74% 0.00in /  0mm 195 W/m2
18:08 72.1 °F /  22.3 °C 63.3 °F /  17.4 °C 29.83in /  1010hPa West 6.9mph /  11.1km/h 13mph /  20.9km/h 74.3% 0.00in /  0mm 207 W/m2
18:14 71.8 °F /  22.1 °C 63.5 °F /  17.5 °C 29.84in /  1010.4hPa WNW 8.5mph /  13.7km/h 12mph /  19.3km/h 75% 0.00in /  0mm 253 W/m2
18:19 71.7 °F /  22.1 °C 63.4 °F /  17.4 °C 29.84in /  1010.4hPa West 7mph /  11.3km/h 12mph /  19.3km/h 75% 0.00in /  0mm 209 W/m2
18:24 71.9 °F /  22.2 °C 63.6 °F /  17.6 °C 29.84in /  1010.4hPa WNW 4.6mph /  7.4km/h 8mph /  12.9km/h 75% 0.00in /  0mm 186 W/m2
18:29 71.8 °F /  22.1 °C 63.5 °F /  17.5 °C 29.84in /  1010.4hPa West 5.9mph /  9.5km/h 12mph /  19.3km/h 75% 0.00in /  0mm 135 W/m2
18:34 71.8 °F /  22.1 °C 63.5 °F /  17.5 °C 29.84in /  1010.4hPa WNW 3.5mph /  5.6km/h 11mph /  17.7km/h 75% 0.00in /  0mm 120 W/m2
18:39 71.8 °F /  22.1 °C 63.5 °F /  17.5 °C 29.85in /  1010.7hPa West 6.8mph /  10.9km/h 11mph /  17.7km/h 75% 0.00in /  0mm 120 W/m2
18:44 71.4 °F /  21.9 °C 63.4 °F /  17.4 °C 29.85in /  1010.7hPa West 6.2mph /  10km/h 13mph /  20.9km/h 75.8% 0.00in /  0mm 120 W/m2
18:49 71 °F /  21.7 °C 63.1 °F /  17.3 °C 29.85in /  1010.7hPa West 6.1mph /  9.8km/h 10mph /  16.1km/h 76% 0.00in /  0mm 118 W/m2
18:54 70.9 °F /  21.6 °C 63.2 °F /  17.3 °C 29.85in /  1010.7hPa West 4.9mph /  7.9km/h 10mph /  16.1km/h 76.8% 0.00in /  0mm 109 W/m2
18:59 70.6 °F /  21.4 °C 63.3 °F /  17.4 °C 29.85in /  1010.7hPa WNW 4.4mph /  7.1km/h 10mph /  16.1km/h 77.6% 0.00in /  0mm 104 W/m2
19:04 70.4 °F /  21.3 °C 63.3 °F /  17.4 °C 29.85in /  1010.7hPa WNW 4.5mph /  7.2km/h 9mph /  14.5km/h 78% 0.00in /  0mm 95 W/m2
19:09 70.3 °F /  21.3 °C 63.2 °F /  17.3 °C 29.85in /  1010.7hPa WNW 3.6mph /  5.8km/h 9mph /  14.5km/h 78.4% 0.00in /  0mm 84 W/m2
19:14 70.1 °F /  21.2 °C 63.2 °F /  17.3 °C 29.85in /  1010.7hPa WNW 5.1mph /  8.2km/h 10mph /  16.1km/h 79% 0.00in /  0mm 74 W/m2
19:19 70 °F /  21.1 °C 63.5 °F /  17.5 °C 29.85in /  1010.7hPa WNW 5.2mph /  8.4km/h 9mph /  14.5km/h 80% 0.00in /  0mm 65 W/m2
19:24 69.8 °F /  21 °C 63.3 °F /  17.4 °C 29.85in /  1010.7hPa WNW 5.3mph /  8.5km/h 12mph /  19.3km/h 80% 0.00in /  0mm 47 W/m2
19:29 69.5 °F /  20.8 °C 63.1 °F /  17.3 °C 29.86in /  1011.1hPa WNW 5.6mph /  9km/h 11mph /  17.7km/h 80.2% 0.00in /  0mm 40 W/m2
19:34 69.4 °F /  20.8 °C 63.2 °F /  17.3 °C 29.86in /  1011.1hPa West 6.2mph /  10km/h 11mph /  17.7km/h 81% 0.00in /  0mm 32 W/m2
19:39 69 °F /  20.6 °C 63 °F /  17.2 °C 29.86in /  1011.1hPa WNW 7.3mph /  11.7km/h 12mph /  19.3km/h 81.4% 0.00in /  0mm 23 W/m2
19:44 68.7 °F /  20.4 °C 63 °F /  17.2 °C 29.86in /  1011.1hPa WNW 6.5mph /  10.5km/h 12mph /  19.3km/h 82% 0.00in /  0mm 21 W/m2
19:49 68.4 °F /  20.2 °C 63 °F /  17.2 °C 29.86in /  1011.1hPa West 6.8mph /  10.9km/h 10mph /  16.1km/h 82.8% 0.00in /  0mm 18 W/m2
19:54 68.2 °F /  20.1 °C 62.8 °F /  17.1 °C 29.87in /  1011.4hPa WNW 6.4mph /  10.3km/h 11mph /  17.7km/h 83% 0.00in /  0mm 12 W/m2
19:59 68.3 °F /  20.2 °C 63.2 °F /  17.3 °C 29.87in /  1011.4hPa WNW 4.4mph /  7.1km/h 8mph /  12.9km/h 84% 0.00in /  0mm 9 W/m2
20:04 68.2 °F /  20.1 °C 63.1 °F /  17.3 °C 29.86in /  1011.1hPa WNW 7.1mph /  11.4km/h 13mph /  20.9km/h 84% 0.00in /  0mm 11 W/m2
20:09 67.9 °F /  19.9 °C 62.9 °F /  17.2 °C 29.86in /  1011.1hPa WNW 5.4mph /  8.7km/h 13mph /  20.9km/h 84% 0.00in /  0mm 9 W/m2
20:14 67.6 °F /  19.8 °C 62.8 °F /  17.1 °C 29.87in /  1011.4hPa WNW 6.6mph /  10.6km/h 12mph /  19.3km/h 84.4% 0.00in /  0mm 7 W/m2
20:19 67.5 °F /  19.7 °C 62.8 °F /  17.1 °C 29.87in /  1011.4hPa WNW 8.2mph /  13.2km/h 14mph /  22.5km/h 85% 0.00in /  0mm 7 W/m2
20:24 67.3 °F /  19.6 °C 62.6 °F /  17 °C 29.87in /  1011.4hPa WNW 4.8mph /  7.7km/h 13mph /  20.9km/h 85% 0.00in /  0mm 5 W/m2
20:29 67.1 °F /  19.5 °C 62.4 °F /  16.9 °C 29.87in /  1011.4hPa WNW 6.8mph /  10.9km/h 11mph /  17.7km/h 85% 0.00in /  0mm 0 W/m2
20:34 66.9 °F /  19.4 °C 62.2 °F /  16.8 °C 29.87in /  1011.4hPa WNW 6.2mph /  10km/h 12mph /  19.3km/h 85% 0.00in /  0mm 0 W/m2
20:39 66.7 °F /  19.3 °C 62.1 °F /  16.7 °C 29.88in /  1011.7hPa WNW 7.9mph /  12.7km/h 14mph /  22.5km/h 85% 0.00in /  0mm 0 W/m2
20:44 66.5 °F /  19.2 °C 61.8 °F /  16.6 °C 29.88in /  1011.7hPa WNW 8.4mph /  13.5km/h 13mph /  20.9km/h 85% 0.00in /  0mm 0 W/m2
20:49 66.3 °F /  19.1 °C 61.6 °F /  16.4 °C 29.88in /  1011.7hPa NW 6.4mph /  10.3km/h 13mph /  20.9km/h 85% 0.00in /  0mm 0 W/m2
20:54 66 °F /  18.9 °C 61.3 °F /  16.3 °C 29.88in /  1011.7hPa West 5.3mph /  8.5km/h 12mph /  19.3km/h 85% 0.00in /  0mm 0 W/m2
20:59 65.9 °F /  18.8 °C 61.3 °F /  16.3 °C 29.88in /  1011.7hPa West 6mph /  9.7km/h 11mph /  17.7km/h 85% 0.00in /  0mm 0 W/m2
21:04 65.6 °F /  18.7 °C 60.9 °F /  16.1 °C 29.88in /  1011.7hPa WNW 7.5mph /  12.1km/h 13mph /  20.9km/h 85% 0.00in /  0mm 0 W/m2
21:09 65.3 °F /  18.5 °C 60.6 °F /  15.9 °C 29.88in /  1011.7hPa WNW 4.2mph /  6.8km/h 12mph /  19.3km/h 85% 0.00in /  0mm 0 W/m2
21:14 65.2 °F /  18.4 °C 60.5 °F /  15.8 °C 29.88in /  1011.7hPa WNW 6.8mph /  10.9km/h 11mph /  17.7km/h 85% 0.00in /  0mm 0 W/m2
21:19 65.3 °F /  18.5 °C 60.6 °F /  15.9 °C 29.90in /  1012.4hPa West 7.7mph /  12.4km/h 13mph /  20.9km/h 85% 0.00in /  0mm 0 W/m2
21:24 65.1 °F /  18.4 °C 60.1 °F /  15.6 °C 29.90in /  1012.4hPa West 5.2mph /  8.4km/h 14mph /  22.5km/h 84.2% 0.00in /  0mm 0 W/m2
21:29 64.9 °F /  18.3 °C 59.9 °F /  15.5 °C 29.90in /  1012.4hPa WNW 5mph /  8km/h 10mph /  16.1km/h 84% 0.00in /  0mm 0 W/m2
21:34 64.9 °F /  18.3 °C 59.9 °F /  15.5 °C 29.89in /  1012.1hPa WNW 4.5mph /  7.2km/h 8mph /  12.9km/h 84% 0.00in /  0mm 0 W/m2
21:39 64.8 °F /  18.2 °C 59.9 °F /  15.5 °C 29.89in /  1012.1hPa West 6.6mph /  10.6km/h 11mph /  17.7km/h 84% 0.00in /  0mm 0 W/m2
21:44 64.6 °F /  18.1 °C 59.7 °F /  15.4 °C 29.89in /  1012.1hPa WNW 5.6mph /  9km/h 7mph /  11.3km/h 84% 0.00in /  0mm 0 W/m2
21:49 64.6 °F /  18.1 °C 59.7 °F /  15.4 °C 29.89in /  1012.1hPa WNW 3.7mph /  6km/h 6mph /  9.7km/h 84% 0.00in /  0mm 0 W/m2
21:54 64.6 °F /  18.1 °C 59.5 °F /  15.3 °C 29.89in /  1012.1hPa WNW 5.2mph /  8.4km/h 10mph /  16.1km/h 83.4% 0.00in /  0mm 0 W/m2
21:59 64.4 °F /  18 °C 59.2 °F /  15.1 °C 29.89in /  1012.1hPa WNW 6.4mph /  10.3km/h 9mph /  14.5km/h 83% 0.00in /  0mm 0 W/m2
22:04 64.3 °F /  17.9 °C 58.9 °F /  14.9 °C 29.89in /  1012.1hPa WNW 7mph /  11.3km/h 12mph /  19.3km/h 82.4% 0.00in /  0mm 0 W/m2
22:09 64.2 °F /  17.9 °C 58.6 °F /  14.8 °C 29.90in /  1012.4hPa West 5.7mph /  9.2km/h 10mph /  16.1km/h 82% 0.00in /  0mm 0 W/m2
22:14 64.2 °F /  17.9 °C 58.4 °F /  14.7 °C 29.90in /  1012.4hPa WNW 4mph /  6.4km/h 9mph /  14.5km/h 81.2% 0.00in /  0mm 0 W/m2
22:19 64.2 °F /  17.9 °C 58.3 °F /  14.6 °C 29.90in /  1012.4hPa WNW 5mph /  8km/h 12mph /  19.3km/h 80.8% 0.00in /  0mm 0 W/m2
22:24 64.1 °F /  17.8 °C 57.8 °F /  14.3 °C 29.90in /  1012.4hPa WNW 7.2mph /  11.6km/h 15mph /  24.1km/h 80% 0.00in /  0mm 0 W/m2
22:29 64.1 °F /  17.8 °C 57.6 °F /  14.2 °C 29.91in /  1012.8hPa West 7.1mph /  11.4km/h 15mph /  24.1km/h 79.4% 0.00in /  0mm 0 W/m2
22:34 64 °F /  17.8 °C 57.4 °F /  14.1 °C 29.91in /  1012.8hPa WNW 6.2mph /  10km/h 13mph /  20.9km/h 79% 0.00in /  0mm 0 W/m2
22:39 64 °F /  17.8 °C 57.4 °F /  14.1 °C 29.91in /  1012.8hPa WNW 4.3mph /  6.9km/h 10mph /  16.1km/h 79% 0.00in /  0mm 0 W/m2
22:43 64 °F /  17.8 °C 57.4 °F /  14.1 °C 29.91in /  1012.8hPa West 5.2mph /  8.4km/h 9mph /  14.5km/h 79% 0.00in /  0mm 0 W/m2
22:49 64 °F /  17.8 °C 57.4 °F /  14.1 °C 29.91in /  1012.8hPa West 5.8mph /  9.3km/h 14mph /  22.5km/h 79.2% 0.00in /  0mm 0 W/m2
22:54 63.9 °F /  17.7 °C 57.6 °F /  14.2 °C 29.91in /  1012.8hPa West 5mph /  8km/h 12mph /  19.3km/h 80% 0.00in /  0mm 0 W/m2
22:59 63.7 °F /  17.6 °C 57.7 °F /  14.3 °C 29.91in /  1012.8hPa WNW 5.2mph /  8.4km/h 9mph /  14.5km/h 80.8% 0.00in /  0mm 0 W/m2
23:04 63.6 °F /  17.6 °C 57.7 °F /  14.3 °C 29.91in /  1012.8hPa WNW 7mph /  11.3km/h 14mph /  22.5km/h 81% 0.00in /  0mm 0 W/m2
23:09 63.3 °F /  17.4 °C 57.4 °F /  14.1 °C 29.91in /  1012.8hPa WNW 6.2mph /  10km/h 13mph /  20.9km/h 81% 0.00in /  0mm 0 W/m2
23:14 63.1 °F /  17.3 °C 57.3 °F /  14.1 °C 29.91in /  1012.8hPa WNW 7.4mph /  11.9km/h 10mph /  16.1km/h 81.2% 0.00in /  0mm 0 W/m2
23:19 63.1 °F /  17.3 °C 57.6 °F /  14.2 °C 29.91in /  1012.8hPa WNW 5mph /  8km/h 10mph /  16.1km/h 82% 0.00in /  0mm 0 W/m2
23:23 62.9 °F /  17.2 °C 57.3 °F /  14.1 °C 29.91in /  1012.8hPa WNW 5.7mph /  9.2km/h 9mph /  14.5km/h 82% 0.00in /  0mm 0 W/m2
23:29 62.6 °F /  17 °C 57.2 °F /  14 °C 29.91in /  1012.8hPa West 4.4mph /  7.1km/h 9mph /  14.5km/h 82.4% 0.00in /  0mm 0 W/m2
23:34 62.3 °F /  16.8 °C 57.1 °F /  13.9 °C 29.92in /  1013.1hPa West 4.7mph /  7.6km/h 9mph /  14.5km/h 83% 0.00in /  0mm 0 W/m2
23:39 62.1 °F /  16.7 °C 57.1 °F /  13.9 °C 29.92in /  1013.1hPa WNW 4mph /  6.4km/h 8mph /  12.9km/h 83.6% 0.00in /  0mm 0 W/m2
23:44 62 °F /  16.7 °C 57.1 °F /  13.9 °C 29.92in /  1013.1hPa WNW 3.7mph /  6km/h 9mph /  14.5km/h 84% 0.00in /  0mm 0 W/m2
23:49 61.9 °F /  16.6 °C 57.1 °F /  13.9 °C 29.91in /  1012.8hPa WNW 5.4mph /  8.7km/h 8mph /  12.9km/h 84.4% 0.00in /  0mm 0 W/m2
23:54 61.7 °F /  16.5 °C 57.2 °F /  14 °C 29.91in /  1012.8hPa WNW 5.5mph /  8.9km/h 10mph /  16.1km/h 85% 0.00in /  0mm 0 W/m2
23:59 61.6 °F /  16.4 °C 57.1 °F /  13.9 °C 29.91in /  1012.8hPa WNW 5mph /  8km/h 10mph /  16.1km/h 85% 0.00in /  0mm 0 W/m2
Bath Spa Weather
Compliments of Weather Underground - 2 mb